Time;durP1;ratioP1;P1;durP2;ratioP2;P2;SDS_P1;SDS_P2;PMS_P1;PMS_P2;Temp;Humidity;BMP_temperature;BMP_pressure;BME280_temperature;BME280_humidity;BME280_pressure;Samples;Min_cycle;Max_cycle;Signal;HPM_P1;HPM_P2
2023/01/14 00:00:25;;;;;;;8.43;1.65;;;5.00;99.90;;;;;;4927195;29;20086;-71
2023/01/14 06:08:07;;;;;;;5.38;0.93;;;5.30;99.90;;;;;;4966146;28;20304;-71
2023/01/14 06:10:36;;;;;;;4.80;0.80;;;5.30;99.90;;;;;;4957807;28;20074;-71
2023/01/14 06:13:10;;;;;;;6.53;0.70;;;5.20;99.90;;;;;;4965972;28;20343;-70
2023/01/14 06:15:39;;;;;;;7.43;0.85;;;5.00;99.90;;;;;;4966489;28;20095;-70
2023/01/14 06:18:15;;;;;;;9.10;1.25;;;4.90;99.90;;;;;;4966063;28;20023;-72
2023/01/14 06:20:45;;;;;;;4.97;1.02;;;4.90;99.90;;;;;;4966119;28;20043;-71
2023/01/14 06:23:11;;;;;;;4.70;0.80;;;5.00;99.90;;;;;;4965593;29;20038;-71
2023/01/14 06:25:36;;;;;;;5.43;0.90;;;5.10;99.90;;;;;;4965847;29;20287;-71
2023/01/14 06:28:02;;;;;;;9.20;1.40;;;5.20;99.90;;;;;;4966236;28;20098;-71
2023/01/14 06:30:29;;;;;;;8.15;0.80;;;5.30;99.90;;;;;;4965703;29;20106;-71
2023/01/14 06:32:55;;;;;;;6.03;1.13;;;5.30;99.90;;;;;;4965988;28;20027;-71
2023/01/14 06:35:22;;;;;;;5.93;1.20;;;5.30;99.90;;;;;;4965573;28;20208;-71
2023/01/14 06:37:48;;;;;;;6.20;1.20;;;5.30;99.90;;;;;;4965506;28;20224;-71
2023/01/14 06:40:14;;;;;;;5.85;0.90;;;5.20;99.90;;;;;;4965370;28;20123;-72
2023/01/14 06:42:41;;;;;;;4.28;0.90;;;5.20;99.90;;;;;;4964759;28;20325;-71
2023/01/14 06:45:07;;;;;;;6.93;1.50;;;5.10;99.90;;;;;;4965543;28;20090;-71
2023/01/14 06:47:33;;;;;;;4.80;0.70;;;5.20;99.90;;;;;;4965576;28;20039;-71
2023/01/14 06:49:59;;;;;;;6.55;1.13;;;5.20;99.90;;;;;;4965300;28;20237;-71
2023/01/14 06:52:25;;;;;;;6.47;0.90;;;5.20;99.90;;;;;;4965171;28;20038;-71
2023/01/14 06:54:53;;;;;;;8.32;1.13;;;5.20;99.90;;;;;;4965330;28;20023;-72
2023/01/14 06:57:19;;;;;;;4.75;0.90;;;5.30;99.90;;;;;;4964780;29;20046;-71
2023/01/14 06:59:45;;;;;;;9.43;1.27;;;5.40;99.90;;;;;;4965511;29;20023;-71
2023/01/14 07:02:13;;;;;;;5.80;0.98;;;5.50;99.90;;;;;;4963475;29;20082;-71
2023/01/14 07:04:39;;;;;;;5.32;1.05;;;5.50;99.90;;;;;;4965276;29;20094;-72
2023/01/14 07:07:06;;;;;;;7.28;1.25;;;5.50;99.90;;;;;;4965076;29;20039;-71
2023/01/14 07:09:32;;;;;;;7.72;1.30;;;5.50;99.90;;;;;;4964629;29;20042;-71
2023/01/14 07:11:57;;;;;;;5.53;0.80;;;5.50;99.90;;;;;;4964121;29;20039;-71
2023/01/14 07:14:23;;;;;;;7.15;1.00;;;5.50;99.90;;;;;;4964314;29;20104;-71
2023/01/14 07:16:49;;;;;;;4.78;0.98;;;5.50;99.90;;;;;;4964856;29;20046;-71
2023/01/14 07:19:15;;;;;;;5.93;1.40;;;5.50;99.90;;;;;;4964180;29;20041;-72
2023/01/14 07:21:41;;;;;;;8.05;1.55;;;5.50;99.90;;;;;;4964738;29;20106;-71
2023/01/14 07:24:06;;;;;;;8.88;1.98;;;5.50;99.90;;;;;;4964657;29;20042;-71
2023/01/14 07:26:33;;;;;;;6.30;0.98;;;5.50;99.90;;;;;;4964554;29;20111;-72
2023/01/14 07:28:58;;;;;;;6.72;1.02;;;5.50;99.90;;;;;;4964809;29;20035;-72
2023/01/14 07:31:24;;;;;;;5.75;1.25;;;5.40;99.90;;;;;;4964294;28;20250;-71
2023/01/14 07:33:50;;;;;;;5.85;0.90;;;5.40;99.90;;;;;;4964513;29;20071;-71
2023/01/14 07:36:16;;;;;;;3.88;1.10;;;5.50;99.90;;;;;;4964269;29;20039;-72
2023/01/14 07:38:41;;;;;;;5.63;1.30;;;5.50;99.90;;;;;;4964150;29;20038;-71
2023/01/14 07:41:12;;;;;;;10.25;1.33;;;5.50;99.90;;;;;;4964428;29;20050;-71
2023/01/14 07:43:38;;;;;;;4.65;0.88;;;5.60;99.90;;;;;;4964232;28;20309;-71
2023/01/14 07:46:06;;;;;;;6.43;1.10;;;5.60;99.90;;;;;;4964389;28;20031;-71
2023/01/14 07:48:32;;;;;;;9.52;2.17;;;5.70;99.90;;;;;;4964878;28;20038;-71
2023/01/14 07:51:01;;;;;;;8.27;1.63;;;5.80;99.90;;;;;;4964724;28;20097;-72
2023/01/14 07:53:27;;;;;;;8.70;1.67;;;5.80;99.90;;;;;;4964065;28;20054;-71
2023/01/14 07:55:52;;;;;;;10.55;1.30;;;5.90;99.90;;;;;;4964214;28;20078;-71
2023/01/14 07:58:18;;;;;;;8.52;1.48;;;5.90;99.90;;;;;;4964055;28;20027;-72
2023/01/14 08:00:44;;;;;;;6.95;1.63;;;6.00;99.90;;;;;;4964154;28;20085;-71
2023/01/14 08:03:09;;;;;;;12.30;1.60;;;6.10;99.90;;;;;;4964055;28;20075;-71
2023/01/14 08:05:35;;;;;;;4.68;1.30;;;6.10;99.90;;;;;;4963542;28;20094;-71
2023/01/14 08:08:01;;;;;;;6.32;1.58;;;6.30;99.90;;;;;;4963975;29;20070;-71
2023/01/14 08:10:27;;;;;;;4.03;1.17;;;6.40;99.90;;;;;;4963638;29;20054;-71
2023/01/14 08:12:53;;;;;;;8.32;1.30;;;6.50;99.90;;;;;;4964220;29;20090;-71
2023/01/14 08:15:19;;;;;;;4.68;1.08;;;6.60;99.90;;;;;;4963640;29;20046;-70
2023/01/14 08:17:44;;;;;;;6.25;1.40;;;6.60;99.90;;;;;;4963625;29;20111;-71
2023/01/14 08:20:11;;;;;;;6.80;1.48;;;6.70;99.90;;;;;;4964029;29;20189;-71
2023/01/14 08:22:37;;;;;;;6.72;1.67;;;6.80;99.90;;;;;;4963586;28;20049;-71
2023/01/14 08:25:04;;;;;;;5.22;1.17;;;6.80;99.90;;;;;;4963789;29;20031;-72
2023/01/14 08:27:29;;;;;;;6.38;1.23;;;7.00;99.90;;;;;;4963437;28;20329;-74
2023/01/14 08:29:56;;;;;;;5.80;1.42;;;7.00;99.90;;;;;;4964018;29;20042;-74
2023/01/14 08:32:23;;;;;;;4.90;1.20;;;7.20;99.90;;;;;;4963370;28;20094;-71
2023/01/14 08:34:49;;;;;;;5.80;1.67;;;7.20;99.90;;;;;;4963921;28;20031;-71
2023/01/14 08:37:15;;;;;;;3.58;0.85;;;7.30;99.90;;;;;;4963986;29;20148;-72
2023/01/14 08:39:41;;;;;;;7.35;1.35;;;7.40;99.90;;;;;;4963861;28;20035;-73
2023/01/14 08:42:06;;;;;;;6.70;0.98;;;7.40;99.90;;;;;;4963660;29;20308;-72
2023/01/14 08:44:32;;;;;;;5.70;1.35;;;7.50;99.90;;;;;;4963244;29;20303;-71
2023/01/14 08:46:58;;;;;;;5.88;1.02;;;7.40;99.90;;;;;;4963463;29;20035;-71
2023/01/14 08:49:24;;;;;;;5.65;1.17;;;7.50;99.90;;;;;;4963197;28;20055;-70
2023/01/14 08:51:50;;;;;;;6.72;1.27;;;7.60;99.90;;;;;;4963425;29;20098;-69
2023/01/14 08:54:15;;;;;;;4.65;0.98;;;7.70;99.90;;;;;;4963629;28;20186;-70
2023/01/14 08:56:41;;;;;;;6.18;1.45;;;7.70;99.90;;;;;;4963353;29;20113;-70
2023/01/14 08:59:07;;;;;;;9.85;1.20;;;7.80;99.90;;;;;;4963557;29;20094;-70
2023/01/14 09:01:32;;;;;;;7.68;1.50;;;7.80;99.90;;;;;;4962970;29;20031;-71
2023/01/14 09:04:00;;;;;;;6.25;1.00;;;7.90;99.90;;;;;;4963656;28;20035;-70
2023/01/14 09:06:26;;;;;;;8.85;1.20;;;8.00;99.90;;;;;;4945557;29;20103;-71
2023/01/14 09:17:13;;;;;;;5.60;1.17;;;8.20;99.90;;;;;;4948210;29;20035;-71
2023/01/14 09:19:54;;;;;;;6.80;1.40;;;8.20;99.90;;;;;;4947280;29;20039;-70
2023/01/14 09:22:24;;;;;;;4.10;1.10;;;8.20;99.90;;;;;;4947287;29;20032;-71
2023/01/14 09:24:51;;;;;;;6.38;1.60;;;8.20;99.90;;;;;;4947987;29;20295;-70
2023/01/14 09:27:17;;;;;;;6.22;1.48;;;8.20;99.90;;;;;;4947512;29;20095;-73
2023/01/14 09:29:43;;;;;;;7.38;1.60;;;8.20;99.90;;;;;;4947812;29;20183;-72
2023/01/14 09:32:10;;;;;;;5.82;1.30;;;8.20;99.90;;;;;;4947815;29;20075;-74
2023/01/14 09:34:39;;;;;;;5.45;1.88;;;8.10;99.90;;;;;;4947114;29;20245;-73
2023/01/14 09:37:05;;;;;;;8.75;1.88;;;8.10;99.90;;;;;;4946594;29;20024;-72
2023/01/14 09:39:30;;;;;;;8.52;1.50;;;8.10;99.90;;;;;;4946725;29;20194;-71
2023/01/14 09:42:00;;;;;;;7.30;1.90;;;8.20;99.90;;;;;;4947490;29;20032;-72
2023/01/14 09:44:26;;;;;;;8.55;1.98;;;8.10;99.90;;;;;;4947178;29;20032;-71
2023/01/14 09:46:52;;;;;;;14.30;2.53;;;8.20;99.90;;;;;;4947472;29;20042;-71
2023/01/14 09:49:23;;;;;;;6.47;1.90;;;8.30;99.90;;;;;;4947532;29;20042;-71
2023/01/14 09:52:13;;;;;;;12.27;2.40;;;8.40;99.90;;;;;;4946958;29;20031;-72
2023/01/14 09:54:54;;;;;;;5.70;1.75;;;8.40;99.90;;;;;;4946673;29;20043;-71
2023/01/14 09:57:24;;;;;;;6.30;1.75;;;8.60;99.90;;;;;;4950898;29;20031;-70
2023/01/14 10:00:25;;;;;;;5.90;1.90;;;8.70;99.90;;;;;;4966443;28;20042;-71
2023/01/14 10:03:08;;;;;;;9.32;2.00;;;8.90;99.90;;;;;;4964377;29;20343;-71
2023/01/14 10:05:39;;;;;;;6.95;2.03;;;9.10;99.90;;;;;;4964692;29;20039;-70
2023/01/14 10:08:11;;;;;;;6.30;1.95;;;9.30;99.90;;;;;;4966069;28;20304;-73
2023/01/14 10:10:43;;;;;;;8.15;2.10;;;9.40;99.90;;;;;;4965342;28;21129;-72
2023/01/14 10:13:32;;;;;;;5.55;2.05;;;9.50;99.90;;;;;;4964366;29;20061;-72
2023/01/14 10:16:22;;;;;;;5.10;1.10;;;9.70;99.90;;;;;;4965736;29;20094;-71
2023/01/14 10:19:14;;;;;;;4.95;1.05;;;9.70;99.90;;;;;;4964571;28;20364;-71
2023/01/14 10:21:48;;;;;;;4.13;1.05;;;9.80;99.90;;;;;;4965215;28;20074;-71
2023/01/14 10:24:16;;;;;;;4.95;1.35;;;9.80;99.90;;;;;;4964278;29;20024;-71
2023/01/14 10:26:49;;;;;;;5.13;1.00;;;9.70;99.90;;;;;;4965672;28;20023;-75
2023/01/14 10:29:26;;;;;;;4.38;0.82;;;9.70;99.90;;;;;;4963611;29;20046;-76
2023/01/14 10:32:02;;;;;;;5.30;1.48;;;9.70;99.90;;;;;;4964558;29;20039;-75
2023/01/14 10:34:43;;;;;;;9.43;1.77;;;9.70;99.90;;;;;;4963695;28;20225;-71
2023/01/14 10:37:11;;;;;;;6.82;2.10;;;9.60;99.90;;;;;;4965610;29;20352;-71
2023/01/14 10:39:50;;;;;;;8.13;1.73;;;9.60;99.90;;;;;;4965009;28;20042;-71
2023/01/14 10:42:24;;;;;;;7.20;1.40;;;9.50;99.90;;;;;;4965618;28;20324;-78
2023/01/14 10:44:51;;;;;;;7.38;2.10;;;9.40;99.90;;;;;;4965860;28;20028;-71
2023/01/14 10:47:18;;;;;;;4.88;1.38;;;9.40;99.90;;;;;;4965618;28;20026;-73
2023/01/14 10:49:56;;;;;;;10.35;1.73;;;9.30;99.90;;;;;;4964363;28;20065;-72
2023/01/14 10:52:32;;;;;;;7.78;1.83;;;9.30;99.90;;;;;;4965660;28;20080;-72
2023/01/14 10:55:12;;;;;;;8.18;1.60;;;9.40;99.90;;;;;;4965105;28;20085;-71
2023/01/14 10:57:49;;;;;;;4.45;1.40;;;9.40;99.90;;;;;;4962363;29;20066;-73
2023/01/14 11:00:44;;;;;;;5.97;1.55;;;9.40;99.90;;;;;;4964911;29;20347;-73
2023/01/14 11:03:23;;;;;;;7.13;1.20;;;9.50;99.90;;;;;;4964837;28;20371;-73
2023/01/14 11:05:57;;;;;;;3.42;1.00;;;9.60;99.90;;;;;;4965341;28;20043;-74
2023/01/14 11:08:36;;;;;;;4.00;1.30;;;9.70;99.90;;;;;;4963955;29;20309;-73
2023/01/14 11:11:09;;;;;;;4.88;1.10;;;9.70;99.90;;;;;;4965107;28;20229;-73
2023/01/14 11:13:48;;;;;;;5.32;1.33;;;9.80;99.90;;;;;;4963368;29;20039;-72
2023/01/14 11:16:27;;;;;;;6.22;1.45;;;9.80;99.90;;;;;;4965151;29;20035;-72
2023/01/14 11:18:55;;;;;;;4.70;1.20;;;9.80;99.90;;;;;;4965475;28;20038;-71
2023/01/14 11:21:22;;;;;;;11.20;4.30;;;9.80;99.90;;;;;;4964872;28;20117;-71
2023/01/14 11:23:56;;;;;;;10.98;4.75;;;9.80;99.90;;;;;;4963888;28;20034;-71
2023/01/14 11:26:33;;;;;;;8.85;3.38;;;9.80;99.90;;;;;;4962422;29;20122;-71
2023/01/14 11:29:27;;;;;;;4.75;1.63;;;9.80;99.90;;;;;;4964535;28;20019;-70
2023/01/14 11:32:04;;;;;;;5.22;1.30;;;9.80;99.90;;;;;;4964472;29;20031;-72
2023/01/14 11:34:37;;;;;;;4.50;1.25;;;9.90;99.90;;;;;;4964498;28;20183;-71
2023/01/14 11:37:04;;;;;;;4.05;1.45;;;9.90;99.90;;;;;;4963942;28;20225;-71
2023/01/14 11:39:29;;;;;;;4.90;1.52;;;10.00;99.90;;;;;;4964212;28;20027;-71
2023/01/14 11:41:57;;;;;;;5.65;1.58;;;10.10;99.90;;;;;;4965315;29;20038;-71
2023/01/14 11:44:23;;;;;;;4.57;0.93;;;10.20;99.90;;;;;;4965173;29;20154;-71
2023/01/14 11:47:14;;;;;;;5.07;1.40;;;10.20;99.90;;;;;;4965240;29;20313;-71
2023/01/14 11:49:40;;;;;;;2.80;1.00;;;10.20;99.90;;;;;;4963202;29;20110;-71
2023/01/14 11:52:17;;;;;;;3.15;0.80;;;10.20;99.90;;;;;;4964885;28;20038;-70
2023/01/14 11:54:45;;;;;;;2.35;0.70;;;10.20;99.90;;;;;;4964143;28;20034;-70
2023/01/14 11:57:15;;;;;;;2.83;0.90;;;10.30;99.90;;;;;;4964744;28;20027;-71
2023/01/14 11:59:41;;;;;;;1.75;0.47;;;10.40;99.90;;;;;;4964597;28;20196;-71
2023/01/14 12:02:16;;;;;;;3.08;0.50;;;10.40;99.90;;;;;;4964623;28;20257;-71
2023/01/14 12:04:51;;;;;;;2.95;0.50;;;10.40;99.90;;;;;;4964223;29;20325;-71
2023/01/14 12:07:47;;;;;;;3.70;0.63;;;10.40;99.90;;;;;;4964770;28;20213;-71
2023/01/14 12:10:20;;;;;;;1.58;0.57;;;10.40;99.90;;;;;;4964626;29;20313;-71
2023/01/14 12:19:20;;;;;;;2.80;0.77;;;10.40;99.90;;;;;;4961672;29;20035;-71
2023/01/14 12:21:53;;;;;;;2.20;0.70;;;10.40;99.90;;;;;;4958444;29;20039;-71
2023/01/14 12:24:52;;;;;;;3.50;1.25;;;10.40;99.90;;;;;;4964035;28;20807;-73
2023/01/14 12:27:45;;;;;;;3.08;0.70;;;10.40;99.90;;;;;;4963023;29;20051;-73
2023/01/14 12:30:35;;;;;;;3.20;0.60;;;10.40;99.90;;;;;;4962178;29;20050;-73
2023/01/14 12:33:04;;;;;;;1.52;0.60;;;10.30;99.90;;;;;;4963139;28;20039;-72
2023/01/14 12:35:38;;;;;;;2.40;0.40;;;10.30;99.90;;;;;;4962872;28;20027;-70
2023/01/14 12:45:41;;;;;;;1.65;0.50;;;10.20;99.90;;;;;;4963659;28;20031;-71
2023/01/14 12:46:38;;;;;;;4.40;1.30;;;10.20;99.90;;;;;;4956225;29;20050;-72
2023/01/14 12:49:05;;;;;;;1.95;0.75;;;10.20;99.90;;;;;;4963643;28;20027;-70
2023/01/14 12:51:33;;;;;;;3.83;1.50;;;10.10;99.90;;;;;;4966502;28;20086;-71
2023/01/14 12:54:01;;;;;;;2.28;0.70;;;10.20;99.90;;;;;;4963142;28;20213;-73
2023/01/14 12:56:32;;;;;;;;;;;10.20;99.90;;;;;;4964465;28;20090;-77
2023/01/14 12:59:21;;;;;;;3.35;0.63;;;10.10;99.90;;;;;;4963702;28;19914;-74
2023/01/14 13:02:16;;;;;;;3.50;0.65;;;10.20;99.90;;;;;;4963025;28;20047;-70
2023/01/14 13:04:58;;;;;;;1.83;0.50;;;10.20;99.90;;;;;;4963445;29;20019;-71
2023/01/14 13:07:28;;;;;;;2.75;0.73;;;10.20;99.90;;;;;;4963743;28;20047;-71
2023/01/14 13:09:58;;;;;;;4.90;1.23;;;10.30;99.90;;;;;;4963355;28;20202;-73
2023/01/14 13:12:26;;;;;;;1.88;0.60;;;10.30;99.90;;;;;;4963457;28;20260;-73
2023/01/14 13:14:57;;;;;;;3.90;0.90;;;10.30;99.90;;;;;;4963323;28;20031;-74
2023/01/14 13:17:35;;;;;;;3.00;0.82;;;10.40;99.90;;;;;;4963688;28;20229;-74
2023/01/14 13:20:19;;;;;;;2.95;0.95;;;10.40;99.90;;;;;;4963340;28;20031;-73
2023/01/14 13:22:51;;;;;;;3.95;1.38;;;10.40;99.90;;;;;;4963301;28;20147;-73
2023/01/14 13:25:36;;;;;;;4.40;0.95;;;10.40;99.90;;;;;;4963511;28;20063;-72
2023/01/14 13:28:09;;;;;;;3.58;1.30;;;10.40;99.90;;;;;;4962219;29;20268;-73
2023/01/14 13:30:43;;;;;;;4.55;1.15;;;10.40;99.90;;;;;;4963181;28;20038;-71
2023/01/14 13:33:28;;;;;;;3.80;1.42;;;10.40;99.90;;;;;;4964001;28;20090;-73
2023/01/14 13:36:09;;;;;;;3.60;1.17;;;10.30;99.90;;;;;;4962813;28;20046;-74
2023/01/14 13:38:42;;;;;;;4.35;1.90;;;10.30;99.90;;;;;;4963027;28;20078;-73
2023/01/14 13:41:11;;;;;;;4.38;1.50;;;10.30;99.90;;;;;;4963665;28;20027;-72
2023/01/14 13:43:49;;;;;;;5.07;1.20;;;10.40;99.90;;;;;;4963169;28;20123;-75
2023/01/14 13:46:21;;;;;;;7.35;1.55;;;10.40;99.90;;;;;;4963267;28;20035;-74
2023/01/14 13:48:59;;;;;;;3.67;1.10;;;10.40;99.90;;;;;;4973033;28;20019;-78
2023/01/14 13:51:39;;;;;;;7.32;1.40;;;10.40;99.90;;;;;;4982108;28;20252;-72
2023/01/14 13:54:29;;;;;;;3.80;1.10;;;10.30;99.90;;;;;;4986465;28;20027;-72
2023/01/14 13:57:15;;;;;;;3.17;1.08;;;10.30;99.90;;;;;;4985144;28;20022;-71
2023/01/14 13:59:48;;;;;;;3.85;1.00;;;10.40;99.90;;;;;;4965670;28;20065;-71
2023/01/14 14:02:42;;;;;;;3.78;1.65;;;10.30;99.90;;;;;;4966393;28;20055;-70
2023/01/14 14:05:28;;;;;;;4.55;1.27;;;10.30;99.90;;;;;;4966460;29;20027;-72
2023/01/14 14:07:59;;;;;;;4.25;1.38;;;10.30;99.90;;;;;;4966146;28;20448;-70
2023/01/14 14:10:30;;;;;;;2.60;0.70;;;10.30;99.90;;;;;;4966391;28;20301;-71
2023/01/14 14:16:23;;;;;;;3.75;1.00;;;10.30;99.90;;;;;;4966335;29;20098;-71
2023/01/14 14:19:09;;;;;;;3.65;0.88;;;10.40;99.90;;;;;;4970776;28;20039;-71
2023/01/14 14:21:47;;;;;;;2.47;0.90;;;10.50;99.90;;;;;;4945209;28;20113;-70
2023/01/14 14:24:30;;;;;;;3.00;0.70;;;10.50;99.90;;;;;;4965928;28;20031;-71
2023/01/14 14:27:00;;;;;;;3.47;0.80;;;10.60;99.90;;;;;;4965533;28;20772;-69
2023/01/14 14:29:26;;;;;;;3.17;0.98;;;10.70;99.90;;;;;;4965902;29;20038;-72
2023/01/14 14:31:59;;;;;;;3.13;0.80;;;10.60;99.90;;;;;;4965718;28;20063;-70
2023/01/14 14:34:25;;;;;;;4.28;1.23;;;10.70;99.90;;;;;;4981006;28;20030;-72
2023/01/14 14:36:56;;;;;;;2.30;0.82;;;10.70;99.90;;;;;;4965776;28;20031;-70
2023/01/14 14:39:32;;;;;;;3.05;0.90;;;10.70;99.90;;;;;;4965592;28;20027;-70
2023/01/14 14:42:01;;;;;;;2.53;0.88;;;10.70;99.90;;;;;;4965473;29;20035;-70
2023/01/14 14:44:29;;;;;;;2.67;0.60;;;10.70;99.90;;;;;;4966024;28;20042;-70
2023/01/14 14:47:12;;;;;;;2.70;0.52;;;10.70;99.90;;;;;;4965176;28;20046;-70
2023/01/14 14:49:38;;;;;;;2.47;0.70;;;10.80;99.90;;;;;;4980238;28;20098;-70
2023/01/14 14:52:16;;;;;;;3.50;0.98;;;10.80;99.90;;;;;;4965661;29;20209;-70
2023/01/14 14:54:43;;;;;;;1.88;0.40;;;10.90;99.40;;;;;;4965083;29;20034;-70
2023/01/14 14:57:20;;;;;;;2.65;0.68;;;10.90;99.60;;;;;;4965298;28;20039;-70
2023/01/14 14:59:46;;;;;;;3.40;0.95;;;10.90;99.40;;;;;;4965164;28;20035;-71
2023/01/14 15:02:28;;;;;;;2.38;0.75;;;10.90;99.90;;;;;;4965107;28;20074;-71
2023/01/14 15:04:57;;;;;;;3.35;0.60;;;10.80;99.20;;;;;;4964157;28;20262;-70
2023/01/14 15:07:24;;;;;;;2.58;0.77;;;10.80;99.00;;;;;;4964640;28;20042;-70
2023/01/14 15:09:51;;;;;;;2.55;0.60;;;10.80;98.80;;;;;;4963729;28;20073;-71
2023/01/14 15:12:19;;;;;;;2.95;0.60;;;10.80;98.20;;;;;;4965164;28;20027;-70
2023/01/14 15:15:02;;;;;;;2.22;0.50;;;10.90;97.70;;;;;;4964636;28;20019;-71
2023/01/14 15:17:28;;;;;;;1.50;0.45;;;10.90;97.60;;;;;;4945696;29;20040;-70
2023/01/14 15:19:56;;;;;;;2.30;0.60;;;10.90;97.30;;;;;;4944493;29;20050;-70
2023/01/14 15:22:27;;;;;;;1.55;0.60;;;10.90;97.10;;;;;;4945717;29;20036;-72
2023/01/14 15:24:55;;;;;;;1.88;0.52;;;10.90;96.10;;;;;;4955631;29;20039;-71
2023/01/14 15:27:28;;;;;;;2.58;0.70;;;11.00;95.90;;;;;;4965189;28;20031;-71
2023/01/14 15:30:03;;;;;;;3.05;0.40;;;11.00;95.60;;;;;;4964697;28;20035;-70
2023/01/14 15:32:31;;;;;;;2.05;0.47;;;11.00;95.40;;;;;;4969262;28;20103;-70
2023/01/14 15:35:25;;;;;;;1.85;0.50;;;11.00;95.00;;;;;;4982856;28;20031;-69
2023/01/14 15:37:56;;;;;;;2.30;0.47;;;11.10;94.80;;;;;;4983505;28;20343;-70
2023/01/14 15:40:31;;;;;;;1.20;0.32;;;11.10;94.70;;;;;;4984432;28;20070;-69
2023/01/14 15:42:58;;;;;;;1.45;0.40;;;11.10;94.80;;;;;;4963835;28;20301;-70
2023/01/14 15:45:28;;;;;;;1.10;0.40;;;11.10;95.00;;;;;;4962369;28;20055;-70
2023/01/14 15:48:02;;;;;;;2.40;0.50;;;11.00;95.70;;;;;;4964142;28;20073;-70
2023/01/14 15:50:40;;;;;;;2.75;0.60;;;11.00;96.20;;;;;;4963517;29;20058;-69
2023/01/14 15:53:20;;;;;;;1.67;0.60;;;10.90;97.80;;;;;;4964737;28;20034;-69
2023/01/14 15:56:18;;;;;;;;;;;10.70;97.10;;;;;;4964487;28;20082;-70
2023/01/14 15:58:56;;;;;;;1.10;0.50;;;10.60;97.00;;;;;;4948670;29;19949;-69
2023/01/14 16:01:27;;;;;;;1.67;0.47;;;10.60;96.40;;;;;;4963119;29;20090;-69
2023/01/14 16:03:58;;;;;;;1.63;0.30;;;10.60;96.70;;;;;;4964104;28;20221;-70
2023/01/14 16:06:26;;;;;;;1.20;0.30;;;10.60;96.70;;;;;;4966113;28;20053;-70
2023/01/14 16:08:53;;;;;;;;;;;10.50;96.60;;;;;;4966124;28;20043;-71
2023/01/14 16:11:19;;;;;;;1.75;0.60;;;10.60;96.50;;;;;;4966030;28;19906;-70
2023/01/14 16:13:45;;;;;;;1.40;0.30;;;10.60;96.50;;;;;;4966907;28;20055;-70
2023/01/14 16:16:14;;;;;;;1.33;0.35;;;10.50;96.50;;;;;;4963298;28;20034;-71
2023/01/14 16:18:40;;;;;;;1.88;0.25;;;10.50;96.40;;;;;;4963972;28;20034;-71
2023/01/14 16:21:09;;;;;;;1.33;0.40;;;10.50;96.60;;;;;;4964418;28;20043;-71
2023/01/14 16:23:41;;;;;;;2.42;0.60;;;10.50;96.70;;;;;;4963865;28;20050;-73
2023/01/14 16:26:11;;;;;;;1.85;0.43;;;10.40;96.90;;;;;;4962960;28;20027;-72
2023/01/14 16:28:36;;;;;;;1.60;0.40;;;10.40;97.20;;;;;;4963832;28;20039;-72
2023/01/14 16:31:02;;;;;;;1.73;0.32;;;10.30;97.20;;;;;;4963800;28;20034;-71
2023/01/14 16:33:28;;;;;;;1.88;0.65;;;10.30;97.20;;;;;;4963890;28;20090;-71
2023/01/14 16:35:55;;;;;;;2.83;0.52;;;10.30;97.30;;;;;;4963828;28;20098;-71
2023/01/14 16:38:22;;;;;;;1.55;0.40;;;10.20;97.30;;;;;;4963969;28;20031;-72
2023/01/14 16:40:48;;;;;;;0.80;0.30;;;10.20;97.30;;;;;;4963349;28;20035;-71
2023/01/14 16:43:13;;;;;;;2.30;0.57;;;10.20;97.30;;;;;;4964022;28;20046;-73
2023/01/14 16:45:48;;;;;;;2.35;0.57;;;10.20;97.60;;;;;;4964195;28;20042;-71
2023/01/14 16:48:14;;;;;;;2.03;0.60;;;10.20;97.40;;;;;;4963428;29;20095;-73
2023/01/14 16:50:40;;;;;;;2.20;0.60;;;10.20;97.40;;;;;;4964170;28;20269;-70
2023/01/14 16:53:06;;;;;;;2.40;0.55;;;10.10;97.40;;;;;;4963911;28;20038;-73
2023/01/14 16:55:33;;;;;;;2.33;0.50;;;10.10;97.40;;;;;;4963746;28;20050;-71
2023/01/14 16:57:59;;;;;;;2.20;0.57;;;10.10;97.50;;;;;;4963007;28;20047;-72
2023/01/14 17:00:27;;;;;;;2.42;0.52;;;10.10;97.70;;;;;;4963677;28;20143;-73
2023/01/14 17:02:53;;;;;;;1.42;0.50;;;10.20;97.50;;;;;;4963458;28;20051;-73
2023/01/14 17:05:20;;;;;;;2.80;0.43;;;10.10;97.50;;;;;;4963523;28;20046;-71
2023/01/14 17:07:46;;;;;;;2.40;0.50;;;10.10;97.80;;;;;;4963061;28;20337;-70
2023/01/14 17:10:14;;;;;;;2.30;0.50;;;10.10;97.70;;;;;;4963930;28;20047;-72
2023/01/14 17:12:41;;;;;;;3.20;0.70;;;10.10;98.20;;;;;;4962554;29;20039;-71
2023/01/14 17:15:13;;;;;;;2.30;0.50;;;10.10;98.00;;;;;;4963958;28;20305;-72
2023/01/14 17:17:40;;;;;;;1.25;0.52;;;10.20;98.30;;;;;;4963680;28;20077;-71
2023/01/14 17:20:09;;;;;;;1.58;0.57;;;10.10;98.40;;;;;;4963347;28;20042;-72
2023/01/14 17:22:35;;;;;;;3.08;0.77;;;10.20;98.40;;;;;;4963846;28;20036;-76
2023/01/14 17:25:01;;;;;;;2.72;0.80;;;10.20;98.40;;;;;;4963444;28;20061;-75
2023/01/14 17:27:27;;;;;;;2.35;0.55;;;10.20;98.20;;;;;;4965219;28;20070;-73
2023/01/14 17:29:52;;;;;;;1.80;0.52;;;10.20;98.20;;;;;;4966916;28;20297;-75
2023/01/14 17:32:18;;;;;;;2.22;0.70;;;10.20;98.40;;;;;;4967160;28;20265;-69
2023/01/14 17:34:46;;;;;;;2.63;0.52;;;10.20;98.60;;;;;;4966570;28;20031;-70
2023/01/14 17:37:12;;;;;;;1.50;0.40;;;10.20;98.90;;;;;;4967272;28;20070;-69
2023/01/14 17:39:38;;;;;;;3.20;0.60;;;10.20;99.00;;;;;;4966671;28;20325;-70
2023/01/14 17:42:10;;;;;;;2.25;0.90;;;10.20;99.20;;;;;;4966728;28;20019;-70
2023/01/14 17:44:44;;;;;;;3.33;1.33;;;10.20;99.50;;;;;;4967481;28;20103;-70
2023/01/14 17:47:15;;;;;;;2.05;0.60;;;10.20;99.70;;;;;;4967016;28;20042;-69
2023/01/14 17:49:42;;;;;;;2.60;0.70;;;10.20;99.90;;;;;;4966766;29;20106;-69
2023/01/14 17:52:09;;;;;;;1.63;0.60;;;10.20;99.90;;;;;;4966586;28;20086;-71
2023/01/14 17:54:35;;;;;;;2.35;0.63;;;10.20;99.90;;;;;;4966574;28;20063;-70
2023/01/14 17:57:02;;;;;;;2.60;0.85;;;10.20;99.90;;;;;;4965889;28;20066;-71
2023/01/14 17:59:28;;;;;;;2.40;0.65;;;10.20;99.90;;;;;;4966300;29;20071;-70
2023/01/14 18:01:54;;;;;;;3.72;1.08;;;10.20;99.90;;;;;;4965985;28;20106;-70
2023/01/14 18:04:20;;;;;;;2.05;0.85;;;10.20;99.90;;;;;;4966605;28;20043;-69
2023/01/14 18:06:46;;;;;;;3.85;0.63;;;10.20;99.90;;;;;;4965909;28;20090;-72
2023/01/14 18:09:11;;;;;;;3.75;1.27;;;10.30;99.90;;;;;;4966486;29;20331;-70
2023/01/14 18:11:37;;;;;;;5.45;1.45;;;10.20;99.90;;;;;;4966293;28;20098;-71
2023/01/14 18:14:03;;;;;;;3.50;1.23;;;10.20;99.90;;;;;;4965839;28;20046;-71
2023/01/14 18:16:29;;;;;;;2.92;0.70;;;10.20;99.90;;;;;;4966335;28;20035;-71
2023/01/14 18:18:55;;;;;;;2.15;0.80;;;10.20;99.90;;;;;;4966145;28;20031;-74
2023/01/14 18:21:21;;;;;;;4.82;1.52;;;10.10;99.90;;;;;;4966243;28;20078;-74
2023/01/14 18:23:47;;;;;;;2.22;0.70;;;10.10;99.90;;;;;;4965774;28;20102;-72
2023/01/14 18:26:15;;;;;;;2.47;0.82;;;10.10;99.90;;;;;;4965973;28;20035;-74
2023/01/14 18:28:55;;;;;;;2.97;0.65;;;10.10;99.90;;;;;;4965855;28;20037;-77
2023/01/14 18:31:22;;;;;;;2.13;0.50;;;10.10;99.90;;;;;;4965827;28;20039;-75
2023/01/14 18:33:48;;;;;;;2.03;0.80;;;10.10;99.90;;;;;;4965324;28;20379;-74
2023/01/14 18:36:15;;;;;;;2.33;0.88;;;10.10;99.90;;;;;;4966115;28;20035;-74
2023/01/14 18:38:41;;;;;;;1.90;0.70;;;10.10;99.90;;;;;;4965157;28;20043;-72
2023/01/14 18:41:10;;;;;;;2.40;0.80;;;10.10;99.90;;;;;;4965472;29;20081;-71
2023/01/14 18:43:36;;;;;;;2.78;0.77;;;10.10;99.90;;;;;;4965815;28;20166;-72
2023/01/14 18:46:16;;;;;;;3.65;0.90;;;10.10;99.90;;;;;;4965218;29;20027;-71
2023/01/14 18:48:43;;;;;;;2.28;0.70;;;10.10;99.90;;;;;;4964448;29;20325;-71
2023/01/14 18:51:10;;;;;;;1.58;0.50;;;10.10;99.90;;;;;;4964822;28;20269;-73
2023/01/14 18:53:38;;;;;;;3.00;0.90;;;10.00;99.90;;;;;;4965409;28;20173;-71
2023/01/14 18:56:05;;;;;;;3.13;0.70;;;10.00;99.90;;;;;;4965088;28;20027;-71
2023/01/14 18:58:33;;;;;;;2.50;0.75;;;10.10;99.90;;;;;;4965541;28;20027;-72
2023/01/14 19:00:59;;;;;;;2.05;0.73;;;10.10;99.90;;;;;;4964693;28;20054;-71
2023/01/14 19:03:25;;;;;;;2.90;0.80;;;10.10;99.90;;;;;;4965072;28;20043;-71
2023/01/14 19:05:50;;;;;;;3.75;0.80;;;10.10;99.90;;;;;;4964864;28;20054;-73
2023/01/14 19:08:16;;;;;;;3.30;0.77;;;10.20;99.90;;;;;;4965558;28;20031;-71
2023/01/14 19:10:43;;;;;;;2.30;0.77;;;10.20;99.90;;;;;;4965171;28;20051;-71
2023/01/14 19:13:09;;;;;;;2.28;1.00;;;10.20;99.90;;;;;;4964464;28;20232;-71
2023/01/14 19:15:34;;;;;;;2.05;0.60;;;10.20;99.90;;;;;;4965075;28;20023;-73
2023/01/14 19:18:00;;;;;;;1.70;0.70;;;10.20;99.90;;;;;;4964569;28;20099;-73
2023/01/14 19:20:26;;;;;;;2.95;0.95;;;10.20;99.90;;;;;;4965257;28;20057;-73
2023/01/14 19:22:52;;;;;;;2.30;0.60;;;10.20;99.90;;;;;;4964713;28;20050;-73
2023/01/14 19:25:18;;;;;;;1.67;0.60;;;10.30;99.90;;;;;;4964940;28;20309;-71
2023/01/14 19:27:44;;;;;;;2.63;0.60;;;10.30;99.90;;;;;;4964897;28;20030;-71
2023/01/14 19:30:10;;;;;;;2.75;0.73;;;10.30;99.90;;;;;;4964657;28;20171;-75
2023/01/14 19:32:35;;;;;;;3.28;0.80;;;10.30;99.90;;;;;;4964702;28;20031;-72
2023/01/14 19:35:01;;;;;;;3.03;1.00;;;10.40;99.90;;;;;;4963546;29;20035;-72
2023/01/14 19:37:27;;;;;;;2.13;0.55;;;10.40;99.90;;;;;;4964786;28;20094;-72